sensor_id;sensor_type;location;lat;lon;timestamp;P1;durP1;ratioP1;P2;durP2;ratioP2
57311;SDS011;43154;50.966;18.316;2023-05-10T00:01:32;12.40;;;4.80;;
57311;SDS011;43154;50.966;18.316;2023-05-10T00:03:57;14.80;;;5.20;;
57311;SDS011;43154;50.966;18.316;2023-05-10T00:06:23;13.70;;;5.40;;
57311;SDS011;43154;50.966;18.316;2023-05-10T00:08:49;14.60;;;5.40;;
57311;SDS011;43154;50.966;18.316;2023-05-10T00:11:14;13.50;;;5.10;;
57311;SDS011;43154;50.966;18.316;2023-05-10T00:13:40;13.60;;;5.00;;
57311;SDS011;43154;50.966;18.316;2023-05-10T00:16:05;15.20;;;5.30;;
57311;SDS011;43154;50.966;18.316;2023-05-10T00:18:31;12.20;;;4.60;;
57311;SDS011;43154;50.966;18.316;2023-05-10T00:20:57;14.80;;;5.20;;
57311;SDS011;43154;50.966;18.316;2023-05-10T00:23:22;13.10;;;5.30;;
57311;SDS011;43154;50.966;18.316;2023-05-10T00:25:48;14.30;;;5.10;;
57311;SDS011;43154;50.966;18.316;2023-05-10T00:28:13;15.50;;;5.50;;
57311;SDS011;43154;50.966;18.316;2023-05-10T00:30:39;13.00;;;5.50;;
57311;SDS011;43154;50.966;18.316;2023-05-10T00:33:04;13.20;;;5.00;;
57311;SDS011;43154;50.966;18.316;2023-05-10T00:35:30;16.00;;;5.60;;
57311;SDS011;43154;50.966;18.316;2023-05-10T00:37:55;15.60;;;5.90;;
57311;SDS011;43154;50.966;18.316;2023-05-10T00:40:21;15.80;;;5.90;;
57311;SDS011;43154;50.966;18.316;2023-05-10T00:42:46;12.10;;;5.10;;
57311;SDS011;43154;50.966;18.316;2023-05-10T00:45:12;15.20;;;5.30;;
57311;SDS011;43154;50.966;18.316;2023-05-10T00:47:38;13.60;;;5.30;;
57311;SDS011;43154;50.966;18.316;2023-05-10T00:50:04;14.10;;;5.20;;
57311;SDS011;43154;50.966;18.316;2023-05-10T00:52:31;13.70;;;5.40;;
57311;SDS011;43154;50.966;18.316;2023-05-10T00:54:56;14.90;;;5.40;;
57311;SDS011;43154;50.966;18.316;2023-05-10T00:57:22;15.10;;;5.30;;
57311;SDS011;43154;50.966;18.316;2023-05-10T00:59:48;14.00;;;5.20;;
57311;SDS011;43154;50.966;18.316;2023-05-10T01:02:14;14.80;;;5.40;;
57311;SDS011;43154;50.966;18.316;2023-05-10T01:04:40;13.00;;;5.10;;
57311;SDS011;43154;50.966;18.316;2023-05-10T01:07:06;13.70;;;5.40;;
57311;SDS011;43154;50.966;18.316;2023-05-10T01:09:32;15.80;;;5.30;;
57311;SDS011;43154;50.966;18.316;2023-05-10T01:11:58;13.30;;;5.60;;
57311;SDS011;43154;50.966;18.316;2023-05-10T01:14:24;12.70;;;5.20;;
57311;SDS011;43154;50.966;18.316;2023-05-10T01:16:50;14.70;;;5.30;;
57311;SDS011;43154;50.966;18.316;2023-05-10T01:19:17;13.20;;;5.40;;
57311;SDS011;43154;50.966;18.316;2023-05-10T01:21:54;13.70;;;5.50;;
57311;SDS011;43154;50.966;18.316;2023-05-10T01:24:51;13.10;;;5.20;;
57311;SDS011;43154;50.966;18.316;2023-05-10T01:33:09;13.30;;;4.80;;
57311;SDS011;43154;50.966;18.316;2023-05-10T01:35:40;13.40;;;5.60;;
57311;SDS011;43154;50.966;18.316;2023-05-10T01:40:38;14.00;;;5.00;;
57311;SDS011;43154;50.966;18.316;2023-05-10T01:43:08;14.10;;;5.40;;
57311;SDS011;43154;50.966;18.316;2023-05-10T01:45:43;14.00;;;5.30;;
57311;SDS011;43154;50.966;18.316;2023-05-10T01:48:14;12.60;;;5.50;;
57311;SDS011;43154;50.966;18.316;2023-05-10T01:50:41;12.60;;;4.90;;
57311;SDS011;43154;50.966;18.316;2023-05-10T01:53:09;13.00;;;5.10;;
57311;SDS011;43154;50.966;18.316;2023-05-10T01:55:43;13.20;;;5.40;;
57311;SDS011;43154;50.966;18.316;2023-05-10T01:58:22;12.80;;;5.10;;
57311;SDS011;43154;50.966;18.316;2023-05-10T02:00:53;16.60;;;5.80;;
57311;SDS011;43154;50.966;18.316;2023-05-10T02:03:23;13.10;;;4.90;;
57311;SDS011;43154;50.966;18.316;2023-05-10T02:05:49;12.30;;;5.20;;
57311;SDS011;43154;50.966;18.316;2023-05-10T02:08:15;14.50;;;5.40;;
57311;SDS011;43154;50.966;18.316;2023-05-10T02:10:43;13.90;;;5.50;;
57311;SDS011;43154;50.966;18.316;2023-05-10T02:13:10;14.10;;;5.60;;
57311;SDS011;43154;50.966;18.316;2023-05-10T02:15:36;17.40;;;5.60;;
57311;SDS011;43154;50.966;18.316;2023-05-10T02:18:04;13.80;;;5.10;;
57311;SDS011;43154;50.966;18.316;2023-05-10T02:20:30;13.30;;;5.60;;
57311;SDS011;43154;50.966;18.316;2023-05-10T02:22:57;13.40;;;5.10;;
57311;SDS011;43154;50.966;18.316;2023-05-10T02:25:23;14.60;;;5.20;;
57311;SDS011;43154;50.966;18.316;2023-05-10T02:27:51;13.60;;;5.40;;
57311;SDS011;43154;50.966;18.316;2023-05-10T02:30:19;14.10;;;5.50;;
57311;SDS011;43154;50.966;18.316;2023-05-10T02:32:45;12.70;;;5.00;;
57311;SDS011;43154;50.966;18.316;2023-05-10T02:35:11;13.70;;;5.30;;
57311;SDS011;43154;50.966;18.316;2023-05-10T02:37:37;14.00;;;5.30;;
57311;SDS011;43154;50.966;18.316;2023-05-10T02:40:04;13.00;;;5.20;;
57311;SDS011;43154;50.966;18.316;2023-05-10T02:42:31;14.40;;;5.20;;
57311;SDS011;43154;50.966;18.316;2023-05-10T02:45:02;13.80;;;5.10;;
57311;SDS011;43154;50.966;18.316;2023-05-10T02:47:30;13.80;;;5.10;;
57311;SDS011;43154;50.966;18.316;2023-05-10T02:49:56;15.00;;;5.50;;
57311;SDS011;43154;50.966;18.316;2023-05-10T02:52:26;13.70;;;5.50;;
57311;SDS011;43154;50.966;18.316;2023-05-10T02:54:55;13.60;;;5.30;;
57311;SDS011;43154;50.966;18.316;2023-05-10T02:57:22;13.90;;;5.40;;
57311;SDS011;43154;50.966;18.316;2023-05-10T02:59:51;13.60;;;5.10;;
57311;SDS011;43154;50.966;18.316;2023-05-10T03:02:17;14.60;;;5.50;;
57311;SDS011;43154;50.966;18.316;2023-05-10T03:04:42;13.40;;;5.40;;
57311;SDS011;43154;50.966;18.316;2023-05-10T03:07:08;14.00;;;5.50;;
57311;SDS011;43154;50.966;18.316;2023-05-10T03:09:34;14.20;;;5.60;;
57311;SDS011;43154;50.966;18.316;2023-05-10T03:23:13;13.20;;;5.60;;
57311;SDS011;43154;50.966;18.316;2023-05-10T03:25:48;15.80;;;5.50;;
57311;SDS011;43154;50.966;18.316;2023-05-10T03:28:16;13.90;;;5.40;;
57311;SDS011;43154;50.966;18.316;2023-05-10T03:30:42;14.70;;;5.70;;
57311;SDS011;43154;50.966;18.316;2023-05-10T03:33:08;14.30;;;5.60;;
57311;SDS011;43154;50.966;18.316;2023-05-10T03:35:34;13.10;;;5.30;;
57311;SDS011;43154;50.966;18.316;2023-05-10T03:38:00;15.10;;;5.50;;
57311;SDS011;43154;50.966;18.316;2023-05-10T03:40:26;15.30;;;5.60;;
57311;SDS011;43154;50.966;18.316;2023-05-10T03:42:54;14.40;;;5.30;;
57311;SDS011;43154;50.966;18.316;2023-05-10T03:45:20;14.30;;;6.10;;
57311;SDS011;43154;50.966;18.316;2023-05-10T03:47:46;14.60;;;5.30;;
57311;SDS011;43154;50.966;18.316;2023-05-10T03:50:11;13.40;;;5.20;;
57311;SDS011;43154;50.966;18.316;2023-05-10T03:52:37;13.30;;;5.40;;
57311;SDS011;43154;50.966;18.316;2023-05-10T03:55:04;12.90;;;5.50;;
57311;SDS011;43154;50.966;18.316;2023-05-10T03:57:31;15.40;;;5.20;;
57311;SDS011;43154;50.966;18.316;2023-05-10T03:59:57;15.20;;;5.80;;
57311;SDS011;43154;50.966;18.316;2023-05-10T04:02:22;13.20;;;5.00;;
57311;SDS011;43154;50.966;18.316;2023-05-10T04:04:48;11.30;;;5.00;;
57311;SDS011;43154;50.966;18.316;2023-05-10T04:07:14;14.30;;;5.40;;
57311;SDS011;43154;50.966;18.316;2023-05-10T04:09:40;12.40;;;5.40;;
57311;SDS011;43154;50.966;18.316;2023-05-10T04:12:06;12.50;;;5.40;;
57311;SDS011;43154;50.966;18.316;2023-05-10T04:14:31;11.80;;;4.90;;
57311;SDS011;43154;50.966;18.316;2023-05-10T04:16:57;12.90;;;5.80;;
57311;SDS011;43154;50.966;18.316;2023-05-10T04:19:23;13.60;;;5.40;;
57311;SDS011;43154;50.966;18.316;2023-05-10T04:21:48;13.40;;;5.20;;
57311;SDS011;43154;50.966;18.316;2023-05-10T04:24:14;15.40;;;5.30;;
57311;SDS011;43154;50.966;18.316;2023-05-10T04:26:40;13.00;;;5.30;;
57311;SDS011;43154;50.966;18.316;2023-05-10T04:29:05;17.00;;;5.20;;
57311;SDS011;43154;50.966;18.316;2023-05-10T04:31:32;13.80;;;5.20;;
57311;SDS011;43154;50.966;18.316;2023-05-10T04:33:58;14.00;;;5.10;;
57311;SDS011;43154;50.966;18.316;2023-05-10T04:36:24;14.00;;;5.30;;
57311;SDS011;43154;50.966;18.316;2023-05-10T04:38:49;16.90;;;5.50;;
57311;SDS011;43154;50.966;18.316;2023-05-10T04:41:14;13.50;;;5.00;;
57311;SDS011;43154;50.966;18.316;2023-05-10T04:43:40;14.40;;;5.10;;
57311;SDS011;43154;50.966;18.316;2023-05-10T04:46:06;13.10;;;4.70;;
57311;SDS011;43154;50.966;18.316;2023-05-10T04:48:32;12.60;;;5.20;;
57311;SDS011;43154;50.966;18.316;2023-05-10T04:50:58;11.90;;;4.80;;
57311;SDS011;43154;50.966;18.316;2023-05-10T04:53:23;13.10;;;5.10;;
57311;SDS011;43154;50.966;18.316;2023-05-10T04:55:49;11.80;;;4.90;;
57311;SDS011;43154;50.966;18.316;2023-05-10T04:58:15;12.00;;;4.90;;
57311;SDS011;43154;50.966;18.316;2023-05-10T05:00:40;13.10;;;4.90;;
57311;SDS011;43154;50.966;18.316;2023-05-10T05:03:07;13.80;;;4.90;;
57311;SDS011;43154;50.966;18.316;2023-05-10T05:05:32;17.00;;;4.90;;
57311;SDS011;43154;50.966;18.316;2023-05-10T05:07:58;13.10;;;4.90;;
57311;SDS011;43154;50.966;18.316;2023-05-10T05:10:23;12.80;;;4.50;;
57311;SDS011;43154;50.966;18.316;2023-05-10T05:12:49;11.70;;;4.10;;
57311;SDS011;43154;50.966;18.316;2023-05-10T05:15:15;14.60;;;4.30;;
57311;SDS011;43154;50.966;18.316;2023-05-10T05:17:42;16.20;;;4.40;;
57311;SDS011;43154;50.966;18.316;2023-05-10T05:20:08;11.30;;;4.10;;
57311;SDS011;43154;50.966;18.316;2023-05-10T05:22:35;13.50;;;4.30;;
57311;SDS011;43154;50.966;18.316;2023-05-10T05:25:02;12.70;;;4.30;;
57311;SDS011;43154;50.966;18.316;2023-05-10T05:27:28;13.20;;;4.50;;
57311;SDS011;43154;50.966;18.316;2023-05-10T05:29:55;15.80;;;4.30;;
57311;SDS011;43154;50.966;18.316;2023-05-10T05:32:21;12.90;;;4.30;;
57311;SDS011;43154;50.966;18.316;2023-05-10T05:34:47;11.00;;;4.00;;
57311;SDS011;43154;50.966;18.316;2023-05-10T05:37:14;11.50;;;4.40;;
57311;SDS011;43154;50.966;18.316;2023-05-10T05:39:43;12.70;;;4.70;;
57311;SDS011;43154;50.966;18.316;2023-05-10T05:42:09;11.30;;;4.40;;
57311;SDS011;43154;50.966;18.316;2023-05-10T05:44:35;11.60;;;4.30;;
57311;SDS011;43154;50.966;18.316;2023-05-10T05:47:01;12.50;;;4.00;;
57311;SDS011;43154;50.966;18.316;2023-05-10T05:49:27;13.70;;;4.50;;
57311;SDS011;43154;50.966;18.316;2023-05-10T05:51:53;12.80;;;4.20;;
57311;SDS011;43154;50.966;18.316;2023-05-10T05:54:18;12.20;;;4.20;;
57311;SDS011;43154;50.966;18.316;2023-05-10T05:56:44;11.60;;;4.10;;
57311;SDS011;43154;50.966;18.316;2023-05-10T05:59:10;10.30;;;3.90;;
57311;SDS011;43154;50.966;18.316;2023-05-10T06:01:36;10.30;;;4.00;;
57311;SDS011;43154;50.966;18.316;2023-05-10T06:04:01;10.60;;;4.10;;
57311;SDS011;43154;50.966;18.316;2023-05-10T06:06:27;12.10;;;4.10;;
57311;SDS011;43154;50.966;18.316;2023-05-10T06:08:53;11.90;;;3.90;;
57311;SDS011;43154;50.966;18.316;2023-05-10T06:11:18;10.30;;;3.60;;
57311;SDS011;43154;50.966;18.316;2023-05-10T06:13:46;10.70;;;3.90;;
57311;SDS011;43154;50.966;18.316;2023-05-10T06:16:12;10.30;;;3.80;;
57311;SDS011;43154;50.966;18.316;2023-05-10T06:18:38;11.90;;;3.70;;
57311;SDS011;43154;50.966;18.316;2023-05-10T06:21:04;10.50;;;3.60;;
57311;SDS011;43154;50.966;18.316;2023-05-10T06:23:29;10.10;;;3.50;;
57311;SDS011;43154;50.966;18.316;2023-05-10T06:25:55;10.40;;;3.50;;
57311;SDS011;43154;50.966;18.316;2023-05-10T06:28:20;9.90;;;3.70;;
57311;SDS011;43154;50.966;18.316;2023-05-10T06:30:46;11.00;;;3.70;;
57311;SDS011;43154;50.966;18.316;2023-05-10T06:33:11;11.80;;;3.80;;
57311;SDS011;43154;50.966;18.316;2023-05-10T06:35:37;9.70;;;3.40;;
57311;SDS011;43154;50.966;18.316;2023-05-10T06:38:04;9.90;;;3.20;;
57311;SDS011;43154;50.966;18.316;2023-05-10T06:40:29;10.60;;;3.20;;
57311;SDS011;43154;50.966;18.316;2023-05-10T06:42:55;10.30;;;3.50;;
57311;SDS011;43154;50.966;18.316;2023-05-10T06:45:20;11.40;;;3.40;;
57311;SDS011;43154;50.966;18.316;2023-05-10T06:47:46;9.90;;;3.40;;
57311;SDS011;43154;50.966;18.316;2023-05-10T06:50:11;9.10;;;3.30;;
57311;SDS011;43154;50.966;18.316;2023-05-10T06:52:37;9.90;;;3.20;;
57311;SDS011;43154;50.966;18.316;2023-05-10T06:55:04;10.20;;;3.70;;
57311;SDS011;43154;50.966;18.316;2023-05-10T06:57:30;9.60;;;3.10;;
57311;SDS011;43154;50.966;18.316;2023-05-10T06:59:56;10.40;;;3.60;;
57311;SDS011;43154;50.966;18.316;2023-05-10T07:02:22;10.50;;;3.30;;
57311;SDS011;43154;50.966;18.316;2023-05-10T07:04:48;10.50;;;3.40;;
57311;SDS011;43154;50.966;18.316;2023-05-10T07:07:14;10.50;;;3.40;;
57311;SDS011;43154;50.966;18.316;2023-05-10T07:09:40;10.10;;;3.40;;
57311;SDS011;43154;50.966;18.316;2023-05-10T07:12:05;10.50;;;3.40;;
57311;SDS011;43154;50.966;18.316;2023-05-10T07:14:31;10.80;;;3.80;;
57311;SDS011;43154;50.966;18.316;2023-05-10T07:16:57;11.30;;;3.50;;
57311;SDS011;43154;50.966;18.316;2023-05-10T07:19:22;8.90;;;3.10;;
57311;SDS011;43154;50.966;18.316;2023-05-10T07:21:48;10.70;;;3.30;;
57311;SDS011;43154;50.966;18.316;2023-05-10T07:24:13;10.50;;;3.40;;
57311;SDS011;43154;50.966;18.316;2023-05-10T07:26:39;8.80;;;3.10;;
57311;SDS011;43154;50.966;18.316;2023-05-10T07:29:05;10.90;;;3.20;;
57311;SDS011;43154;50.966;18.316;2023-05-10T07:31:31;8.90;;;3.30;;
57311;SDS011;43154;50.966;18.316;2023-05-10T07:33:57;10.50;;;3.40;;
57311;SDS011;43154;50.966;18.316;2023-05-10T07:36:22;8.90;;;3.30;;
57311;SDS011;43154;50.966;18.316;2023-05-10T07:38:48;9.60;;;3.20;;
57311;SDS011;43154;50.966;18.316;2023-05-10T07:41:14;9.20;;;3.20;;
57311;SDS011;43154;50.966;18.316;2023-05-10T07:43:40;10.20;;;3.40;;
57311;SDS011;43154;50.966;18.316;2023-05-10T07:46:06;10.40;;;3.50;;
57311;SDS011;43154;50.966;18.316;2023-05-10T07:48:31;9.60;;;3.30;;
57311;SDS011;43154;50.966;18.316;2023-05-10T07:50:57;10.20;;;3.20;;
57311;SDS011;43154;50.966;18.316;2023-05-10T07:53:23;9.20;;;3.30;;
57311;SDS011;43154;50.966;18.316;2023-05-10T07:55:52;10.00;;;3.50;;
57311;SDS011;43154;50.966;18.316;2023-05-10T07:58:19;9.90;;;3.40;;
57311;SDS011;43154;50.966;18.316;2023-05-10T08:00:45;8.90;;;3.20;;
57311;SDS011;43154;50.966;18.316;2023-05-10T08:03:10;10.80;;;3.10;;
57311;SDS011;43154;50.966;18.316;2023-05-10T08:05:37;9.50;;;3.40;;
57311;SDS011;43154;50.966;18.316;2023-05-10T08:08:02;10.00;;;3.50;;
57311;SDS011;43154;50.966;18.316;2023-05-10T08:10:28;11.00;;;3.50;;
57311;SDS011;43154;50.966;18.316;2023-05-10T08:12:54;9.30;;;3.20;;
57311;SDS011;43154;50.966;18.316;2023-05-10T08:15:19;8.90;;;3.20;;
57311;SDS011;43154;50.966;18.316;2023-05-10T08:17:45;11.60;;;3.20;;
57311;SDS011;43154;50.966;18.316;2023-05-10T08:20:11;13.00;;;3.10;;
57311;SDS011;43154;50.966;18.316;2023-05-10T08:22:38;10.30;;;3.20;;
57311;SDS011;43154;50.966;18.316;2023-05-10T08:25:03;9.70;;;3.10;;
57311;SDS011;43154;50.966;18.316;2023-05-10T08:27:30;12.30;;;3.40;;
57311;SDS011;43154;50.966;18.316;2023-05-10T08:29:55;10.30;;;3.30;;
57311;SDS011;43154;50.966;18.316;2023-05-10T08:32:21;10.90;;;3.50;;
57311;SDS011;43154;50.966;18.316;2023-05-10T08:34:46;9.30;;;3.30;;
57311;SDS011;43154;50.966;18.316;2023-05-10T08:37:12;10.50;;;3.40;;
57311;SDS011;43154;50.966;18.316;2023-05-10T08:39:38;10.00;;;3.50;;
57311;SDS011;43154;50.966;18.316;2023-05-10T08:42:04;9.00;;;3.30;;
57311;SDS011;43154;50.966;18.316;2023-05-10T08:44:34;10.30;;;3.30;;
57311;SDS011;43154;50.966;18.316;2023-05-10T08:47:04;10.60;;;3.50;;
57311;SDS011;43154;50.966;18.316;2023-05-10T09:23:56;8.80;;;2.80;;
57311;SDS011;43154;50.966;18.316;2023-05-10T09:26:22;9.20;;;2.90;;
57311;SDS011;43154;50.966;18.316;2023-05-10T09:28:56;10.10;;;2.80;;
57311;SDS011;43154;50.966;18.316;2023-05-10T09:31:22;9.40;;;3.10;;
57311;SDS011;43154;50.966;18.316;2023-05-10T09:33:50;9.20;;;2.80;;
57311;SDS011;43154;50.966;18.316;2023-05-10T09:36:16;8.80;;;2.70;;
57311;SDS011;43154;50.966;18.316;2023-05-10T09:38:48;9.70;;;3.00;;
57311;SDS011;43154;50.966;18.316;2023-05-10T09:41:15;9.20;;;3.30;;
57311;SDS011;43154;50.966;18.316;2023-05-10T09:43:42;10.40;;;3.40;;
57311;SDS011;43154;50.966;18.316;2023-05-10T09:46:08;8.80;;;3.20;;
57311;SDS011;43154;50.966;18.316;2023-05-10T09:48:39;9.20;;;3.00;;
57311;SDS011;43154;50.966;18.316;2023-05-10T09:51:07;11.20;;;3.20;;
57311;SDS011;43154;50.966;18.316;2023-05-10T09:53:33;7.90;;;2.60;;
57311;SDS011;43154;50.966;18.316;2023-05-10T09:55:58;9.40;;;2.70;;
57311;SDS011;43154;50.966;18.316;2023-05-10T09:58:24;8.40;;;2.60;;
57311;SDS011;43154;50.966;18.316;2023-05-10T10:00:49;7.90;;;2.80;;
57311;SDS011;43154;50.966;18.316;2023-05-10T10:03:19;11.10;;;3.10;;
57311;SDS011;43154;50.966;18.316;2023-05-10T10:05:46;9.10;;;2.90;;
57311;SDS011;43154;50.966;18.316;2023-05-10T10:08:13;7.90;;;2.70;;
57311;SDS011;43154;50.966;18.316;2023-05-10T10:10:39;8.60;;;2.80;;
57311;SDS011;43154;50.966;18.316;2023-05-10T10:13:10;8.40;;;3.00;;
57311;SDS011;43154;50.966;18.316;2023-05-10T10:15:36;9.10;;;2.80;;
57311;SDS011;43154;50.966;18.316;2023-05-10T10:18:02;9.40;;;3.00;;
57311;SDS011;43154;50.966;18.316;2023-05-10T10:20:29;9.90;;;2.90;;
57311;SDS011;43154;50.966;18.316;2023-05-10T10:22:55;8.40;;;2.90;;
57311;SDS011;43154;50.966;18.316;2023-05-10T10:25:20;8.70;;;3.00;;
57311;SDS011;43154;50.966;18.316;2023-05-10T10:35:31;8.80;;;2.90;;
57311;SDS011;43154;50.966;18.316;2023-05-10T10:37:58;8.30;;;2.80;;
57311;SDS011;43154;50.966;18.316;2023-05-10T10:40:30;10.30;;;3.00;;
57311;SDS011;43154;50.966;18.316;2023-05-10T10:42:57;9.60;;;3.10;;
57311;SDS011;43154;50.966;18.316;2023-05-10T10:45:24;9.80;;;3.00;;
57311;SDS011;43154;50.966;18.316;2023-05-10T10:50:45;10.80;;;3.50;;
57311;SDS011;43154;50.966;18.316;2023-05-10T10:53:12;8.20;;;2.70;;
57311;SDS011;43154;50.966;18.316;2023-05-10T10:55:47;9.60;;;3.00;;
57311;SDS011;43154;50.966;18.316;2023-05-10T10:58:29;10.10;;;3.30;;
57311;SDS011;43154;50.966;18.316;2023-05-10T11:01:16;7.90;;;2.80;;
57311;SDS011;43154;50.966;18.316;2023-05-10T11:06:30;9.70;;;2.80;;
57311;SDS011;43154;50.966;18.316;2023-05-10T11:08:57;9.10;;;3.00;;
57311;SDS011;43154;50.966;18.316;2023-05-10T11:11:23;9.60;;;3.10;;
57311;SDS011;43154;50.966;18.316;2023-05-10T11:13:49;8.50;;;2.70;;
57311;SDS011;43154;50.966;18.316;2023-05-10T11:21:26;9.10;;;2.90;;
57311;SDS011;43154;50.966;18.316;2023-05-10T11:23:53;9.00;;;2.90;;
57311;SDS011;43154;50.966;18.316;2023-05-10T11:26:24;8.80;;;2.70;;
57311;SDS011;43154;50.966;18.316;2023-05-10T11:28:53;11.80;;;2.90;;
57311;SDS011;43154;50.966;18.316;2023-05-10T11:31:23;8.30;;;2.90;;
57311;SDS011;43154;50.966;18.316;2023-05-10T11:33:55;9.50;;;3.00;;
57311;SDS011;43154;50.966;18.316;2023-05-10T11:36:29;8.20;;;2.90;;
57311;SDS011;43154;50.966;18.316;2023-05-10T11:39:01;9.40;;;2.80;;
57311;SDS011;43154;50.966;18.316;2023-05-10T11:41:28;8.50;;;3.20;;
57311;SDS011;43154;50.966;18.316;2023-05-10T11:43:55;8.30;;;2.80;;
57311;SDS011;43154;50.966;18.316;2023-05-10T11:46:23;9.20;;;2.80;;
57311;SDS011;43154;50.966;18.316;2023-05-10T11:48:50;8.20;;;2.90;;
57311;SDS011;43154;50.966;18.316;2023-05-10T11:51:23;8.40;;;2.90;;
57311;SDS011;43154;50.966;18.316;2023-05-10T11:53:50;10.00;;;2.80;;
57311;SDS011;43154;50.966;18.316;2023-05-10T11:56:17;8.50;;;3.00;;
57311;SDS011;43154;50.966;18.316;2023-05-10T11:58:43;9.00;;;2.90;;
57311;SDS011;43154;50.966;18.316;2023-05-10T12:01:08;8.50;;;3.10;;
57311;SDS011;43154;50.966;18.316;2023-05-10T12:03:35;7.70;;;2.70;;
57311;SDS011;43154;50.966;18.316;2023-05-10T12:06:01;8.90;;;2.70;;
57311;SDS011;43154;50.966;18.316;2023-05-10T12:08:28;9.70;;;3.00;;
57311;SDS011;43154;50.966;18.316;2023-05-10T12:11:08;8.90;;;2.90;;
57311;SDS011;43154;50.966;18.316;2023-05-10T12:13:39;7.60;;;2.60;;
57311;SDS011;43154;50.966;18.316;2023-05-10T12:16:13;7.30;;;2.50;;
57311;SDS011;43154;50.966;18.316;2023-05-10T12:18:49;8.10;;;2.80;;
57311;SDS011;43154;50.966;18.316;2023-05-10T12:21:16;10.20;;;2.90;;
57311;SDS011;43154;50.966;18.316;2023-05-10T12:23:42;8.20;;;2.70;;
57311;SDS011;43154;50.966;18.316;2023-05-10T12:26:11;9.40;;;2.90;;
57311;SDS011;43154;50.966;18.316;2023-05-10T12:28:38;10.30;;;2.90;;
57311;SDS011;43154;50.966;18.316;2023-05-10T12:31:07;8.80;;;3.00;;
57311;SDS011;43154;50.966;18.316;2023-05-10T12:33:42;7.70;;;2.60;;
57311;SDS011;43154;50.966;18.316;2023-05-10T12:36:09;10.20;;;2.80;;
57311;SDS011;43154;50.966;18.316;2023-05-10T12:38:36;8.50;;;2.70;;
57311;SDS011;43154;50.966;18.316;2023-05-10T12:41:05;8.70;;;2.60;;
57311;SDS011;43154;50.966;18.316;2023-05-10T12:43:32;10.70;;;2.80;;
57311;SDS011;43154;50.966;18.316;2023-05-10T12:45:58;9.70;;;2.80;;
57311;SDS011;43154;50.966;18.316;2023-05-10T12:48:24;9.00;;;2.90;;
57311;SDS011;43154;50.966;18.316;2023-05-10T12:50:50;8.40;;;2.70;;
57311;SDS011;43154;50.966;18.316;2023-05-10T12:53:16;8.40;;;2.90;;
57311;SDS011;43154;50.966;18.316;2023-05-10T12:55:42;9.20;;;2.90;;
57311;SDS011;43154;50.966;18.316;2023-05-10T12:58:08;8.30;;;2.70;;
57311;SDS011;43154;50.966;18.316;2023-05-10T13:00:34;9.40;;;2.80;;
57311;SDS011;43154;50.966;18.316;2023-05-10T13:03:00;8.20;;;2.60;;
57311;SDS011;43154;50.966;18.316;2023-05-10T13:05:26;8.00;;;2.70;;
57311;SDS011;43154;50.966;18.316;2023-05-10T13:07:51;8.40;;;2.70;;
57311;SDS011;43154;50.966;18.316;2023-05-10T13:10:17;9.60;;;2.90;;
57311;SDS011;43154;50.966;18.316;2023-05-10T13:12:43;9.30;;;2.90;;
57311;SDS011;43154;50.966;18.316;2023-05-10T13:15:08;7.30;;;2.60;;
57311;SDS011;43154;50.966;18.316;2023-05-10T13:17:34;9.00;;;2.80;;
57311;SDS011;43154;50.966;18.316;2023-05-10T13:20:00;9.00;;;2.90;;
57311;SDS011;43154;50.966;18.316;2023-05-10T13:22:26;9.30;;;3.10;;
57311;SDS011;43154;50.966;18.316;2023-05-10T13:24:51;7.60;;;2.70;;
57311;SDS011;43154;50.966;18.316;2023-05-10T13:27:17;8.00;;;2.80;;
57311;SDS011;43154;50.966;18.316;2023-05-10T13:29:43;8.10;;;2.70;;
57311;SDS011;43154;50.966;18.316;2023-05-10T13:32:08;10.70;;;2.80;;
57311;SDS011;43154;50.966;18.316;2023-05-10T13:34:34;8.60;;;2.70;;
57311;SDS011;43154;50.966;18.316;2023-05-10T13:37:01;8.80;;;3.00;;
57311;SDS011;43154;50.966;18.316;2023-05-10T13:39:27;9.50;;;3.20;;
57311;SDS011;43154;50.966;18.316;2023-05-10T13:41:54;9.30;;;2.90;;
57311;SDS011;43154;50.966;18.316;2023-05-10T13:44:20;8.30;;;2.70;;
57311;SDS011;43154;50.966;18.316;2023-05-10T13:46:46;9.50;;;2.60;;
57311;SDS011;43154;50.966;18.316;2023-05-10T13:49:12;8.10;;;2.80;;
57311;SDS011;43154;50.966;18.316;2023-05-10T13:51:38;8.40;;;2.90;;
57311;SDS011;43154;50.966;18.316;2023-05-10T13:54:03;9.60;;;3.20;;
57311;SDS011;43154;50.966;18.316;2023-05-10T13:56:29;10.50;;;3.00;;
57311;SDS011;43154;50.966;18.316;2023-05-10T13:58:56;10.60;;;3.00;;
57311;SDS011;43154;50.966;18.316;2023-05-10T14:01:22;9.90;;;2.90;;
57311;SDS011;43154;50.966;18.316;2023-05-10T14:03:48;8.00;;;2.80;;
57311;SDS011;43154;50.966;18.316;2023-05-10T14:06:14;9.00;;;2.80;;
57311;SDS011;43154;50.966;18.316;2023-05-10T14:08:41;8.70;;;2.90;;
57311;SDS011;43154;50.966;18.316;2023-05-10T14:11:07;8.70;;;2.90;;
57311;SDS011;43154;50.966;18.316;2023-05-10T14:13:32;8.00;;;2.80;;
57311;SDS011;43154;50.966;18.316;2023-05-10T14:15:58;8.90;;;2.90;;
57311;SDS011;43154;50.966;18.316;2023-05-10T14:18:28;8.90;;;2.90;;
57311;SDS011;43154;50.966;18.316;2023-05-10T14:20:54;8.40;;;2.90;;
57311;SDS011;43154;50.966;18.316;2023-05-10T14:23:21;8.60;;;2.90;;
57311;SDS011;43154;50.966;18.316;2023-05-10T14:25:51;8.70;;;2.70;;
57311;SDS011;43154;50.966;18.316;2023-05-10T14:28:17;9.60;;;2.90;;
57311;SDS011;43154;50.966;18.316;2023-05-10T14:30:43;9.70;;;2.90;;
57311;SDS011;43154;50.966;18.316;2023-05-10T14:33:10;9.40;;;2.90;;
57311;SDS011;43154;50.966;18.316;2023-05-10T14:35:35;8.40;;;2.80;;
57311;SDS011;43154;50.966;18.316;2023-05-10T14:38:04;9.30;;;2.80;;
57311;SDS011;43154;50.966;18.316;2023-05-10T14:40:30;10.20;;;2.90;;
57311;SDS011;43154;50.966;18.316;2023-05-10T14:42:56;12.30;;;3.20;;
57311;SDS011;43154;50.966;18.316;2023-05-10T14:45:22;9.80;;;2.90;;
57311;SDS011;43154;50.966;18.316;2023-05-10T14:47:48;9.10;;;2.70;;
57311;SDS011;43154;50.966;18.316;2023-05-10T14:50:15;9.10;;;3.20;;
57311;SDS011;43154;50.966;18.316;2023-05-10T14:52:42;8.20;;;3.00;;
57311;SDS011;43154;50.966;18.316;2023-05-10T14:55:08;9.30;;;2.90;;
57311;SDS011;43154;50.966;18.316;2023-05-10T14:57:33;9.20;;;3.10;;
57311;SDS011;43154;50.966;18.316;2023-05-10T14:59:59;9.90;;;3.00;;
57311;SDS011;43154;50.966;18.316;2023-05-10T15:02:25;8.90;;;3.00;;
57311;SDS011;43154;50.966;18.316;2023-05-10T15:04:51;8.60;;;2.90;;
57311;SDS011;43154;50.966;18.316;2023-05-10T15:07:16;10.40;;;3.10;;
57311;SDS011;43154;50.966;18.316;2023-05-10T15:09:44;8.30;;;2.90;;
57311;SDS011;43154;50.966;18.316;2023-05-10T15:12:10;10.30;;;2.90;;
57311;SDS011;43154;50.966;18.316;2023-05-10T15:14:36;9.90;;;2.90;;
57311;SDS011;43154;50.966;18.316;2023-05-10T15:17:02;8.60;;;2.90;;
57311;SDS011;43154;50.966;18.316;2023-05-10T15:19:27;8.60;;;3.00;;
57311;SDS011;43154;50.966;18.316;2023-05-10T15:21:54;10.30;;;3.00;;
57311;SDS011;43154;50.966;18.316;2023-05-10T15:24:20;9.80;;;3.10;;
57311;SDS011;43154;50.966;18.316;2023-05-10T15:26:47;9.50;;;3.00;;
57311;SDS011;43154;50.966;18.316;2023-05-10T15:29:13;10.80;;;3.50;;
57311;SDS011;43154;50.966;18.316;2023-05-10T15:31:48;9.20;;;3.00;;
57311;SDS011;43154;50.966;18.316;2023-05-10T15:34:14;9.90;;;3.00;;
57311;SDS011;43154;50.966;18.316;2023-05-10T15:36:40;9.40;;;3.10;;